Time;durP1;ratioP1;P1;durP2;ratioP2;P2;SDS_P1;SDS_P2;PMS_P1;PMS_P2;Temp;Humidity;BMP_temperature;BMP_pressure;BME280_temperature;BME280_humidity;BME280_pressure;Samples;Min_cycle;Max_cycle;Signal;HPM_P1;HPM_P2
2023/01/10 00:00:08;;;;;;;;;3.00;1.00;;;;;7.42;67.35;101554.66;4976148;28;45421;-44
2023/01/10 00:02:33;;;;;;;;;2.33;1.00;;;;;7.42;67.19;101544.09;4975143;28;47028;-51
2023/01/10 00:04:59;;;;;;;;;3.00;1.00;;;;;7.41;67.91;101544.16;4975538;28;45333;-45
2023/01/10 00:07:24;;;;;;;;;6.67;3.33;;;;;7.42;67.63;101540.59;4976059;28;45257;-44
2023/01/10 00:09:49;;;;;;;;;1.33;0.00;;;;;7.36;66.97;101535.72;4976152;28;45409;-45
2023/01/10 00:14:58;;;;;;;;;3.00;1.00;;;;;7.39;67.38;101546.94;4975545;28;45261;-45
2023/01/10 00:17:24;;;;;;;;;1.67;1.67;;;;;7.38;67.60;101547.91;4975560;28;45377;-45
2023/01/10 00:19:49;;;;;;;;;3.33;2.00;;;;;7.38;67.72;101561.13;4975873;28;45199;-43
2023/01/10 00:22:17;;;;;;;;;8.33;2.33;;;;;7.37;67.16;101563.88;4975731;28;45396;-42
2023/01/10 00:24:42;;;;;;;;;1.67;1.00;;;;;7.35;67.17;101566.63;4975612;28;45437;-45
2023/01/10 00:27:09;;;;;;;;;13.00;6.00;;;;;7.34;67.20;101570.22;4975439;28;45452;-43
2023/01/10 00:29:35;;;;;;;;;2.00;2.00;;;;;7.33;67.26;101571.19;4975876;28;45377;-46
2023/01/10 00:32:00;;;;;;;;;2.67;2.67;;;;;7.34;67.79;101583.47;4975299;28;46247;-45
2023/01/10 00:34:25;;;;;;;;;2.00;1.00;;;;;7.36;67.46;101593.94;4975434;28;45428;-46
2023/01/10 00:36:51;;;;;;;;;6.67;0.67;;;;;7.35;67.26;101589.59;4975557;28;45365;-45
2023/01/10 00:39:19;;;;;;;;;1.00;1.00;;;;;7.33;67.69;101599.44;4975674;28;45753;-44
2023/01/10 00:44:28;;;;;;;;;5.00;1.00;;;;;7.28;67.10;101594.47;4975353;28;45437;-43
2023/01/10 00:46:54;;;;;;;;;2.00;0.33;;;;;7.28;66.77;101598.91;4975393;28;45280;-43
2023/01/10 00:49:19;;;;;;;;;4.67;2.00;;;;;7.23;68.00;101593.94;4975365;28;45438;-47
2023/01/10 00:51:45;;;;;;;;;4.00;1.75;;;;;7.26;67.80;101609.59;4975154;28;45281;-45
2023/01/10 00:54:12;;;;;;;;;4.67;2.00;;;;;7.28;67.80;101614.78;4975226;28;45349;-47
2023/01/10 00:56:37;;;;;;;;;1.00;1.00;;;;;7.27;67.75;101613.94;4975363;28;45367;-50
2023/01/10 00:59:03;;;;;;;;;8.00;3.00;;;;;7.28;67.62;101617.44;4975390;28;45378;-44
2023/01/10 01:01:29;;;;;;;;;4.33;1.67;;;;;7.27;68.10;101621.03;4975385;28;45440;-45
2023/01/10 01:03:54;;;;;;;;;7.00;1.50;;;;;7.19;67.45;101610.97;4974743;28;45544;-44
2023/01/10 01:06:20;;;;;;;;;5.67;1.67;;;;;7.25;67.50;101619.34;4975102;28;45353;-43
2023/01/10 01:08:45;;;;;;;;;0.67;0.67;;;;;7.27;67.36;101621.88;4975397;28;45316;-45
2023/01/10 01:11:11;;;;;;;;;5.33;1.33;;;;;7.22;67.42;101618.72;4975374;28;50236;-45
2023/01/10 01:13:36;;;;;;;;;2.00;1.33;;;;;7.27;67.53;101634.28;4975743;28;45350;-44
2023/01/10 01:16:01;;;;;;;;;4.33;0.00;;;;;7.25;67.39;101631.75;4975240;28;45347;-45
2023/01/10 01:18:27;;;;;;;;;5.00;1.00;;;;;7.25;67.61;101631.75;4975144;28;45247;-44
2023/01/10 01:20:55;;;;;;;;;2.67;1.67;;;;;7.27;67.33;101643.06;4975076;28;45351;-44
2023/01/10 01:23:22;;;;;;;;;4.00;2.50;;;;;7.17;67.53;101632.25;4974867;28;45395;-44
2023/01/10 01:25:51;;;;;;;;;4.00;1.67;;;;;7.11;67.73;101627.34;4974944;28;45402;-44
2023/01/10 01:28:17;;;;;;;;;7.50;0.75;;;;;7.21;67.28;101646.97;4974964;28;45170;-45
2023/01/10 01:30:42;;;;;;;;;1.25;1.25;;;;;7.19;67.58;101651.50;4974599;28;46329;-44
2023/01/10 01:33:08;;;;;;;;;5.25;3.00;;;;;7.20;67.75;101665.56;4974566;28;45406;-45
2023/01/10 01:35:33;;;;;;;;;5.00;2.50;;;;;7.20;67.91;101657.63;4974962;28;45335;-45
2023/01/10 01:37:59;;;;;;;;;2.00;0.67;;;;;7.17;68.21;101666.66;4975293;28;45348;-46
2023/01/10 01:40:24;;;;;;;;;5.75;1.75;;;;;7.20;68.47;101658.47;4974673;28;46512;-44
2023/01/10 01:42:54;;;;;;;;;2.25;1.75;;;;;7.21;68.45;101670.78;4974713;28;45315;-44
2023/01/10 01:45:22;;;;;;;;;4.00;2.00;;;;;7.22;67.85;101676.94;4974589;28;45394;-44
2023/01/10 01:47:51;;;;;;;;;8.00;1.75;;;;;7.21;68.17;101673.44;4974815;28;45499;-46
2023/01/10 01:50:28;;;;;;;;;5.50;1.25;;;;;7.22;67.79;101674.28;4974104;28;45570;-45
2023/01/10 01:52:56;;;;;;;;;1.00;1.00;;;;;7.23;67.59;101668.03;4974506;28;45425;-44
2023/01/10 01:55:26;;;;;;;;;6.33;0.00;;;;;7.23;68.46;101658.28;4974544;28;45276;-45
2023/01/10 01:57:56;;;;;;;;;1.50;1.00;;;;;7.19;68.41;101655.94;4974550;28;45301;-45
2023/01/10 02:00:21;;;;;;;;;2.67;2.00;;;;;7.19;67.76;101656.78;4974315;28;45247;-45
2023/01/10 02:02:53;;;;;;;;;4.00;1.00;;;;;7.11;67.94;101652.97;4974505;28;45356;-47
2023/01/10 02:05:21;;;;;;;;;2.00;2.00;;;;;7.25;68.24;101676.72;4974261;28;45334;-44
2023/01/10 02:07:51;;;;;;;;;6.67;1.33;;;;;7.25;68.12;101676.72;4974650;28;45492;-46
2023/01/10 02:10:27;;;;;;;;;3.00;0.00;;;;;7.26;67.99;101675.78;4972739;28;46033;-44
2023/01/10 02:12:54;;;;;;;;;2.25;1.00;;;;;7.27;68.50;101688.03;4974143;28;45461;-45
2023/01/10 02:15:20;;;;;;;;;4.75;1.00;;;;;7.24;68.29;101696.19;4974245;28;45390;-43
2023/01/10 02:17:49;;;;;;;;;1.67;1.67;;;;;7.19;68.37;101691.19;4974520;28;45410;-44
2023/01/10 02:20:16;;;;;;;;;4.25;4.25;;;;;7.16;68.46;101688.78;4973838;28;46252;-42
2023/01/10 02:22:53;;;;;;;;;5.33;4.00;;;;;7.19;68.64;101703.59;4974142;28;45300;-45
2023/01/10 02:25:47;;;;;;;;;7.67;1.33;;;;;7.17;68.27;101702.84;4976161;28;45374;-45
2023/01/10 02:28:40;;;;;;;;;7.33;4.67;;;;;7.13;68.34;101712.78;4977275;28;45390;-46
2023/01/10 02:31:39;;;;;;;;;8.67;1.67;;;;;7.09;68.86;101721.88;4976649;28;46413;-43
2023/01/10 02:34:18;;;;;;;;;1.33;1.33;;;;;7.06;68.81;101719.41;4976745;28;45488;-41
2023/01/10 02:36:47;;;;;;;;;5.00;2.00;;;;;7.07;68.64;101718.47;4977107;28;45246;-43
2023/01/10 02:39:20;;;;;;;;;1.00;1.00;;;;;7.05;69.40;101724.81;4977299;28;45322;-43
2023/01/10 02:42:05;;;;;;;;;1.75;1.00;;;;;7.05;68.82;101728.31;4976708;28;45270;-45
2023/01/10 02:45:02;;;;;;;;;2.67;0.67;;;;;7.05;68.69;101725.66;4976683;28;45498;-43
2023/01/10 02:47:37;;;;;;;;;1.75;1.75;;;;;7.02;69.70;101732.94;4976691;28;45297;-44
2023/01/10 02:50:29;;;;;;;;;2.00;1.00;;;;;6.99;69.28;101726.91;4976696;28;45606;-43
2023/01/10 02:53:01;;;;;;;;;3.75;2.00;;;;;6.98;69.43;101740.22;4976579;28;46292;-55
2023/01/10 02:55:46;;;;;;;;;4.00;1.00;;;;;6.95;69.46;101740.41;4976684;28;45459;-44
2023/01/10 02:58:39;;;;;;;;;2.50;2.00;;;;;6.94;69.55;101754.59;4977035;28;45376;-59
2023/01/10 03:01:26;;;;;;;;;6.00;0.00;;;;;6.93;69.53;101751.09;4976795;28;45261;-43
2023/01/10 03:04:04;;;;;;;;;5.00;4.00;;;;;6.83;69.61;101734.13;4976192;28;47234;-52
2023/01/10 03:06:44;;;;;;;;;4.75;1.50;;;;;6.94;69.70;101746.66;4976698;28;45382;-53
2023/01/10 03:09:25;;;;;;;;;4.75;2.00;;;;;6.92;69.75;101738.00;4976510;28;45435;-46
2023/01/10 03:12:00;;;;;;;;;5.00;1.00;;;;;6.89;69.83;101735.53;4976742;28;45462;-42
2023/01/10 03:14:27;;;;;;;;;1.00;1.00;;;;;6.84;69.57;101732.34;4976375;28;46239;-44
2023/01/10 03:17:03;;;;;;;;;3.67;1.00;;;;;6.79;69.55;101735.28;4976665;28;45477;-52
2023/01/10 03:19:34;;;;;;;;;3.00;1.00;;;;;6.63;69.67;101708.13;4976566;28;45513;-48
2023/01/10 03:22:02;;;;;;;;;7.00;4.00;;;;;6.78;70.19;101730.06;4976680;28;45323;-52
2023/01/10 03:24:44;;;;;;;;;6.50;4.75;;;;;6.77;70.45;101728.38;4976177;28;45425;-58
2023/01/10 03:27:33;;;;;;;;;4.50;4.00;;;;;6.75;70.18;101731.97;4976284;28;45374;-43
2023/01/10 03:30:24;;;;;;;;;1.25;1.00;;;;;6.77;69.98;101736.31;4976520;28;45324;-45
2023/01/10 03:32:50;;;;;;;;;5.00;2.00;;;;;6.78;70.54;101745.94;4976547;28;45320;-44
2023/01/10 03:35:16;;;;;;;;;6.00;1.00;;;;;6.74;70.79;101750.56;4975335;28;46035;-44
2023/01/10 03:37:52;;;;;;;;;5.00;1.00;;;;;6.64;70.66;101730.97;4975652;28;45316;-45
2023/01/10 03:40:30;;;;;;;;;1.00;1.00;;;;;6.73;70.90;101760.31;4976495;28;45288;-48
2023/01/10 03:46:08;;;;;;;;;5.75;1.00;;;;;6.72;70.71;101757.75;4976162;28;45767;-44
2023/01/10 03:48:37;;;;;;;;;7.75;0.75;;;;;6.69;70.47;101757.94;4976158;28;45464;-42
2023/01/10 03:51:05;;;;;;;;;4.00;1.50;;;;;6.70;70.52;101764.94;4975874;28;45161;-44
2023/01/10 03:53:32;;;;;;;;;3.50;3.50;;;;;6.72;70.92;101766.53;4976170;28;45263;-48
2023/01/10 03:55:59;;;;;;;;;5.00;1.00;;;;;6.68;70.48;101753.63;4975992;28;47838;-43
2023/01/10 03:58:27;;;;;;;;;6.75;4.25;;;;;6.77;71.11;101778.63;4975956;28;45352;-43
2023/01/10 04:00:52;;;;;;;;;5.00;1.00;;;;;6.77;70.25;101778.63;4975968;28;45426;-44
2023/01/10 04:03:17;;;;;;;;;8.00;3.00;;;;;6.75;70.85;101786.66;4976145;28;45506;-44
2023/01/10 04:05:43;;;;;;;;;4.50;1.25;;;;;6.74;70.58;101783.19;4975513;28;46143;-46
2023/01/10 04:08:08;;;;;;;;;1.75;1.75;;;;;6.73;70.12;101776.16;4975913;28;45284;-44
2023/01/10 04:10:33;;;;;;;;;5.25;1.50;;;;;6.68;71.11;101777.41;4975610;28;49204;-44
2023/01/10 04:13:01;;;;;;;;;1.50;1.00;;;;;6.61;70.96;101771.66;4976000;28;45292;-47
2023/01/10 04:15:27;;;;;;;;;7.00;2.00;;;;;6.61;70.78;101779.56;4975909;28;46138;-44
2023/01/10 04:17:53;;;;;;;;;4.25;1.00;;;;;6.55;71.17;101777.31;4975753;28;45491;-44
2023/01/10 04:20:18;;;;;;;;;4.50;2.00;;;;;6.46;71.63;101780.53;4977063;28;45380;-44
2023/01/10 04:22:44;;;;;;;;;6.50;4.00;;;;;6.50;71.77;101774.13;4975936;28;45399;-44
2023/01/10 04:25:10;;;;;;;;;1.00;1.00;;;;;6.51;72.07;101778.47;4975518;28;45851;-44
2023/01/10 04:27:35;;;;;;;;;4.00;3.00;;;;;6.46;72.32;101768.19;4975756;28;45490;-45
2023/01/10 04:30:00;;;;;;;;;5.25;4.00;;;;;6.42;72.32;101779.03;4975886;28;45348;-45
2023/01/10 04:32:26;;;;;;;;;2.00;1.00;;;;;6.40;71.89;101783.56;4976026;28;45541;-44
2023/01/10 04:34:52;;;;;;;;;5.25;5.00;;;;;6.35;72.64;101788.28;4975165;28;49197;-46
2023/01/10 04:37:18;;;;;;;;;4.75;3.00;;;;;6.35;72.19;101783.00;4975546;28;45295;-44
2023/01/10 04:39:44;;;;;;;;;5.50;3.50;;;;;6.24;72.66;101773.94;4975748;28;45271;-43
2023/01/10 04:42:09;;;;;;;;;5.00;2.25;;;;;6.38;71.91;101793.38;4975666;28;45310;-42
2023/01/10 04:44:34;;;;;;;;;8.25;1.75;;;;;6.38;72.61;101786.31;4975465;28;46230;-43
2023/01/10 04:46:59;;;;;;;;;1.50;1.00;;;;;6.29;72.87;101783.38;4976302;28;45385;-44
2023/01/10 04:49:25;;;;;;;;;5.00;2.00;;;;;6.33;72.39;101790.19;4975920;28;45400;-43
2023/01/10 04:51:50;;;;;;;;;6.00;2.00;;;;;6.36;72.83;101796.13;4975981;28;45532;-44
2023/01/10 04:54:20;;;;;;;;;8.00;1.25;;;;;6.37;73.05;101791.69;4974399;28;46896;-44
2023/01/10 04:56:45;;;;;;;;;4.50;4.00;;;;;6.36;72.55;101790.84;4975521;28;45436;-42
2023/01/10 04:59:10;;;;;;;;;4.25;2.00;;;;;6.39;72.15;101788.00;4975327;28;45291;-42
2023/01/10 05:01:37;;;;;;;;;5.50;3.00;;;;;6.42;72.52;101785.16;4975512;28;45338;-44
2023/01/10 05:04:04;;;;;;;;;5.75;2.00;;;;;6.43;72.53;101789.50;4975177;28;46040;-43
2023/01/10 05:06:30;;;;;;;;;5.50;3.50;;;;;6.46;72.51;101791.97;4974831;28;45491;-43
2023/01/10 05:08:55;;;;;;;;;1.75;0.50;;;;;6.48;72.03;101787.41;4975178;28;45296;-44
2023/01/10 05:11:21;;;;;;;;;6.25;3.00;;;;;6.51;72.35;101786.38;4977490;28;45187;-42
2023/01/10 05:13:46;;;;;;;;;3.75;2.50;;;;;6.54;72.45;101791.50;4975106;28;46263;-44
2023/01/10 05:16:11;;;;;;;;;5.00;3.50;;;;;6.59;71.96;101788.56;4973759;28;45307;-41
2023/01/10 05:18:37;;;;;;;;;4.25;2.00;;;;;6.61;71.61;101781.38;4975189;28;45654;-42
2023/01/10 05:21:04;;;;;;;;;6.50;2.00;;;;;6.62;72.11;101783.94;4975183;28;45395;-58
2023/01/10 05:23:30;;;;;;;;;2.00;2.00;;;;;6.58;71.88;101763.09;4975004;28;46560;-56
2023/01/10 05:25:55;;;;;;;;;4.25;1.75;;;;;6.66;72.08;101771.38;4974784;28;45446;-57
2023/01/10 05:28:21;;;;;;;;;4.50;4.00;;;;;6.68;72.02;101777.41;4973801;28;45431;-57
2023/01/10 05:30:46;;;;;;;;;7.00;1.75;;;;;6.66;72.33;101785.44;4975381;28;45390;-54
2023/01/10 05:33:11;;;;;;;;;1.00;1.00;;;;;6.67;72.18;101792.44;4975027;28;45562;-57
2023/01/10 05:35:37;;;;;;;;;6.75;1.00;;;;;6.64;71.85;101794.41;4973457;28;45314;-58
2023/01/10 05:38:02;;;;;;;;;6.00;4.50;;;;;6.62;72.19;101794.53;4974914;28;45252;-56
2023/01/10 05:40:28;;;;;;;;;9.00;5.00;;;;;6.57;72.74;101788.63;4975108;28;45491;-59
2023/01/10 05:42:53;;;;;;;;;4.75;4.00;;;;;6.55;72.09;101779.97;4974495;28;46198;-58
2023/01/10 05:45:18;;;;;;;;;4.00;4.00;;;;;6.56;72.34;101781.66;4974523;28;45250;-56
2023/01/10 05:47:44;;;;;;;;;4.00;1.00;;;;;6.53;72.82;101786.28;4974645;28;45399;-55
2023/01/10 05:50:09;;;;;;;;;5.00;3.00;;;;;6.51;72.64;101783.75;4974621;28;45409;-58
2023/01/10 05:52:35;;;;;;;;;8.50;3.25;;;;;6.52;73.17;101785.44;4974331;28;46236;-58
2023/01/10 05:55:00;;;;;;;;;6.50;4.00;;;;;6.56;72.82;101779.03;4974577;28;45464;-57
2023/01/10 05:57:26;;;;;;;;;4.50;4.00;;;;;6.47;72.70;101764.59;4976298;28;45160;-57
2023/01/10 05:59:51;;;;;;;;;4.00;4.00;;;;;6.54;73.35;101775.63;4973796;28;45196;-58
2023/01/10 06:02:16;;;;;;;;;5.50;4.00;;;;;6.50;72.90;101779.41;4974430;28;46014;-55
2023/01/10 06:04:42;;;;;;;;;8.25;4.25;;;;;6.47;73.23;101776.94;4974386;28;45719;-58
2023/01/10 06:07:08;;;;;;;;;3.50;3.50;;;;;6.47;73.59;101766.38;4974348;28;45272;-58
2023/01/10 06:09:33;;;;;;;;;3.00;3.00;;;;;6.44;72.91;101767.41;4974956;28;45425;-58
2023/01/10 06:11:59;;;;;;;;;6.25;5.75;;;;;6.47;73.37;101780.44;4974159;28;45924;-59
2023/01/10 06:14:24;;;;;;;;;5.00;3.50;;;;;6.45;73.12;101765.63;4974169;28;45410;-57
2023/01/10 06:16:49;;;;;;;;;7.00;6.75;;;;;6.52;73.14;101769.59;4974310;28;45593;-56
2023/01/10 06:19:15;;;;;;;;;9.00;2.00;;;;;6.40;73.61;101760.59;4974461;28;45390;-55
2023/01/10 06:21:40;;;;;;;;;4.25;4.25;;;;;6.53;73.02;101773.06;4974063;28;46170;-54
2023/01/10 06:24:06;;;;;;;;;6.00;6.00;;;;;6.55;73.48;101771.19;4974129;28;45826;-53
2023/01/10 06:26:31;;;;;;;;;9.00;4.00;;;;;6.54;73.13;101773.00;4974115;28;45306;-58
2023/01/10 06:28:58;;;;;;;;;4.00;4.00;;;;;6.56;73.43;101768.44;4974337;28;45439;-46
2023/01/10 06:31:24;;;;;;;;;5.75;4.75;;;;;6.56;73.02;101771.09;4973866;28;46075;-55
2023/01/10 06:33:50;;;;;;;;;10.25;5.50;;;;;6.56;72.94;101772.88;4974108;28;45256;-57
2023/01/10 06:36:15;;;;;;;;;5.00;4.00;;;;;6.51;73.48;101770.53;4973774;28;45320;-56
2023/01/10 06:38:41;;;;;;;;;4.00;4.00;;;;;6.42;73.73;101774.59;4974247;28;45350;-55
2023/01/10 06:41:12;;;;;;;;;8.00;2.00;;;;;6.41;73.49;101791.41;4973849;28;46147;-53
2023/01/10 06:43:42;;;;;;;;;8.00;4.00;;;;;6.31;73.48;101778.84;4973877;28;45318;-56
2023/01/10 06:46:08;;;;;;;;;7.00;4.00;;;;;6.28;73.85;101774.59;4973893;28;45423;-56
2023/01/10 06:48:36;;;;;;;;;8.50;4.00;;;;;6.34;73.94;101782.16;4973999;28;45330;-52
2023/01/10 06:51:04;;;;;;;;;8.00;5.00;;;;;6.24;74.27;101773.94;4973147;28;46198;-56
2023/01/10 06:53:29;;;;;;;;;7.50;4.00;;;;;6.30;74.45;101795.63;4973789;28;45456;-56
2023/01/10 06:55:56;;;;;;;;;8.75;6.75;;;;;6.33;73.90;101798.94;4974125;28;45287;-58
2023/01/10 06:58:21;;;;;;;;;5.00;5.00;;;;;6.28;73.76;101795.75;4974047;28;45478;-42
2023/01/10 07:00:47;;;;;;;;;5.00;5.00;;;;;6.23;74.43;101795.16;4975121;28;45458;-43
2023/01/10 07:03:12;;;;;;;;;6.00;5.25;;;;;6.22;74.95;101786.38;4973606;28;47395;-45
2023/01/10 07:05:38;;;;;;;;;5.25;1.75;;;;;6.21;74.21;101787.31;4973593;28;45386;-46
2023/01/10 07:08:04;;;;;;;;;6.75;4.00;;;;;6.25;74.24;101794.13;4973691;28;45348;-45
2023/01/10 07:10:29;;;;;;;;;8.25;5.75;;;;;6.30;74.82;101788.56;4974515;28;45872;-43
2023/01/10 07:12:55;;;;;;;;;8.25;4.25;;;;;6.32;74.54;101796.38;4976428;28;45410;-44
2023/01/10 07:15:21;;;;;;;;;4.75;2.00;;;;;6.21;73.95;101766.19;4976658;28;45380;-58
2023/01/10 07:17:46;;;;;;;;;6.00;6.00;;;;;6.33;74.26;101788.38;4976648;28;45314;-45
2023/01/10 07:20:11;;;;;;;;;3.75;3.50;;;;;6.37;74.34;101781.13;4976411;28;45330;-60
2023/01/10 07:22:37;;;;;;;;;7.50;5.50;;;;;6.34;74.32;101776.00;4976115;28;45424;-45
2023/01/10 07:25:03;;;;;;;;;7.00;5.00;;;;;6.33;74.60;101777.81;4976335;28;45253;-52
2023/01/10 07:27:32;;;;;;;;;10.50;8.00;;;;;6.37;74.37;101781.97;4976667;28;45461;-44
2023/01/10 07:29:58;;;;;;;;;9.25;5.50;;;;;6.32;74.75;101765.56;4976273;28;45467;-46
2023/01/10 07:32:24;;;;;;;;;8.25;5.25;;;;;6.36;74.09;101779.41;4974926;28;45423;-59
2023/01/10 07:34:49;;;;;;;;;9.50;4.25;;;;;6.36;74.46;101774.13;4976442;28;45250;-57
2023/01/10 07:37:14;;;;;;;;;5.50;2.00;;;;;6.33;74.23;101777.81;4976351;28;45283;-45
2023/01/10 07:39:41;;;;;;;;;4.25;2.00;;;;;6.37;74.63;101770.53;4976372;28;45411;-58
2023/01/10 07:42:09;;;;;;;;;4.25;4.00;;;;;6.35;74.25;101770.63;4976191;28;45395;-56
2023/01/10 07:44:35;;;;;;;;;4.25;4.00;;;;;6.35;74.37;101757.41;4975542;28;45373;-52
2023/01/10 07:47:00;;;;;;;;;7.75;4.00;;;;;6.38;74.67;101765.16;4976239;28;45253;-55
2023/01/10 07:49:25;;;;;;;;;4.00;4.00;;;;;6.44;74.18;101774.50;4975886;28;47426;-50
2023/01/10 07:51:51;;;;;;;;;7.00;4.00;;;;;6.41;74.30;101770.25;4975805;28;45267;-47
2023/01/10 07:54:16;;;;;;;;;10.00;4.75;;;;;6.40;74.22;101768.53;4976264;28;45405;-58
2023/01/10 07:56:41;;;;;;;;;12.00;4.75;;;;;6.37;74.06;101775.84;4976431;28;45318;-57
2023/01/10 07:59:07;;;;;;;;;9.75;7.00;;;;;6.37;74.30;101773.19;4975781;28;46196;-53
2023/01/10 08:01:32;;;;;;;;;5.50;4.75;;;;;6.37;74.31;101774.03;4976213;28;45260;-53
2023/01/10 08:03:57;;;;;;;;;4.75;4.75;;;;;6.37;74.43;101778.47;4975882;28;45374;-54
2023/01/10 08:06:23;;;;;;;;;12.50;10.75;;;;;6.36;74.83;101772.34;4976071;28;45436;-48
2023/01/10 08:08:48;;;;;;;;;11.00;6.00;;;;;6.40;74.82;101775.63;4975688;28;46190;-46
2023/01/10 08:11:13;;;;;;;;;10.00;7.50;;;;;6.38;74.85;101782.81;4977144;28;45391;-55
2023/01/10 08:13:39;;;;;;;;;9.00;4.50;;;;;6.36;74.36;101784.69;4987705;28;46434;-53
2023/01/10 08:16:06;;;;;;;;;8.75;4.50;;;;;6.38;74.90;101780.16;4977491;27;45529;-50
2023/01/10 08:18:32;;;;;;;;;5.00;5.00;;;;;6.40;74.75;101780.91;4980062;28;45936;-43
2023/01/10 08:20:57;;;;;;;;;7.75;4.75;;;;;6.34;74.88;101768.94;4985222;28;45594;-45
2023/01/10 08:23:23;;;;;;;;;12.00;8.00;;;;;6.39;74.88;101782.72;5005366;28;45510;-49
2023/01/10 08:25:49;;;;;;;;;13.00;8.75;;;;;6.40;74.68;101784.41;5073940;28;45344;-43
2023/01/10 08:28:15;;;;;;;;;11.75;8.00;;;;;6.38;74.34;101770.44;5057692;27;47205;-43
2023/01/10 08:30:40;;;;;;;;;11.00;5.00;;;;;6.44;73.99;101779.78;5049904;27;45436;-46
2023/01/10 08:33:07;;;;;;;;;8.00;5.25;;;;;6.46;74.43;101788.47;5065668;28;46407;-44
2023/01/10 08:35:42;;;;;;;;;7.50;6.50;;;;;6.48;74.91;101784.78;5074569;27;45515;-46
2023/01/10 08:38:08;;;;;;;;;12.50;8.00;;;;;6.54;74.77;101778.28;5018553;27;45496;-44
2023/01/10 08:40:34;;;;;;;;;10.25;5.00;;;;;6.52;74.66;101772.22;5068323;28;45452;-44
2023/01/10 08:43:02;;;;;;;;;7.50;7.50;;;;;6.46;74.60;101770.81;5073950;27;45437;-43
2023/01/10 08:45:28;;;;;;;;;7.00;5.00;;;;;6.47;74.55;101775.16;5074180;27;45463;-55
2023/01/10 08:47:53;;;;;;;;;14.50;8.75;;;;;6.54;74.77;101770.34;5024986;28;45571;-43
2023/01/10 08:50:19;;;;;;;;;6.00;4.25;;;;;6.50;74.70;101769.69;5070096;27;45522;-44
2023/01/10 08:52:44;;;;;;;;;8.75;7.75;;;;;6.57;74.92;101770.13;5074159;27;45401;-44
2023/01/10 08:55:09;;;;;;;;;11.50;6.00;;;;;6.59;74.64;101775.34;5055515;27;45441;-43
2023/01/10 08:57:35;;;;;;;;;11.00;6.50;;;;;6.59;74.96;101778.84;4995294;28;45850;-44
2023/01/10 09:00:00;;;;;;;;;14.00;8.50;;;;;6.59;74.79;101778.84;5063408;28;45471;-44
2023/01/10 09:02:26;;;;;;;;;8.00;8.00;;;;;6.63;74.62;101784.78;5014651;27;45728;-44
2023/01/10 09:04:51;;;;;;;;;9.00;8.00;;;;;6.60;74.70;101779.69;5062464;28;45455;-45
2023/01/10 09:07:16;;;;;;;;;5.75;5.75;;;;;6.63;74.40;101785.63;5056123;27;45963;-44
2023/01/10 09:09:42;;;;;;;;;11.50;7.25;;;;;6.63;75.08;101784.78;5068590;28;45383;-44
2023/01/10 09:12:53;;;;;;;;;8.75;7.50;;;;;6.66;75.15;101782.81;5025836;28;45376;-44
2023/01/10 09:14:52;;;;;;;;;11.00;8.00;;;;;6.70;74.71;101776.38;4999530;27;45370;-43
2023/01/10 09:17:18;;;;;;;;;8.75;8.00;;;;;6.71;75.52;101764.84;5069787;27;46044;-44
2023/01/10 09:19:43;;;;;;;;;10.50;7.00;;;;;6.76;75.81;101775.13;4976286;27;50765;-43
2023/01/10 09:22:08;;;;;;;;;10.50;4.50;;;;;6.78;76.10;101773.22;5005276;28;45741;-44
2023/01/10 09:24:36;;;;;;;;;11.25;8.75;;;;;6.79;75.88;101774.09;5018583;27;45571;-46
2023/01/10 09:27:01;;;;;;;;;5.00;4.75;;;;;6.82;75.81;101774.72;4973377;28;46176;-46
2023/01/10 09:29:27;;;;;;;;;11.75;8.75;;;;;6.83;75.88;101760.59;4972194;28;45618;-44
2023/01/10 09:31:52;;;;;;;;;15.00;8.00;;;;;6.83;76.22;101763.22;4973922;28;45513;-45
2023/01/10 09:34:17;;;;;;;;;8.50;5.00;;;;;6.86;75.56;101767.47;4973250;28;45569;-45
2023/01/10 09:36:42;;;;;;;;;12.00;10.50;;;;;6.89;76.40;101761.97;4989379;28;45472;-45
2023/01/10 09:39:08;;;;;;;;;16.25;8.25;;;;;6.93;76.39;101760.84;5013217;28;45883;-49
2023/01/10 09:41:44;;;;;;;;;14.00;9.50;;;;;6.93;77.47;101760.84;5073258;27;45263;-45
2023/01/10 09:44:37;;;;;;;;;9.00;6.50;;;;;6.91;77.50;101773.28;5039444;28;45503;-44
2023/01/10 09:47:09;;;;;;;;;10.00;8.50;;;;;6.90;77.35;101746.00;5069363;27;47206;-46
2023/01/10 09:50:00;;;;;;;;;13.25;8.75;;;;;6.84;77.32;101740.28;5072589;27;45484;-48
2023/01/10 09:52:41;;;;;;;;;8.25;6.50;;;;;6.88;77.45;101736.50;5072975;27;45421;-55
2023/01/10 09:55:16;;;;;;;;;8.75;7.00;;;;;6.94;78.25;101742.22;5073357;27;45538;-46
2023/01/10 09:57:42;;;;;;;;;14.50;10.00;;;;;6.93;78.00;101735.22;5071592;27;45469;-46
2023/01/10 10:00:08;;;;;;;;;12.25;9.75;;;;;6.94;77.68;101746.66;5072781;27;45526;-43
2023/01/10 10:02:38;;;;;;;;;13.25;9.00;;;;;6.95;78.26;101743.06;5052600;28;45476;-44
2023/01/10 10:05:24;;;;;;;;;13.25;6.25;;;;;6.95;78.02;101745.72;5072749;28;45294;-58
2023/01/10 10:07:53;;;;;;;;;6.75;6.00;;;;;6.93;78.04;101747.63;5070627;28;46148;-46
2023/01/10 10:10:32;;;;;;;;;13.25;8.75;;;;;6.96;77.55;101742.97;5072910;27;45547;-47
2023/01/10 10:13:13;;;;;;;;;13.00;8.00;;;;;6.50;78.28;101676.31;5071894;27;45436;-44
2023/01/10 10:15:50;;;;;;;;;11.25;8.50;;;;;6.97;78.76;101744.66;5072723;27;45605;-47
2023/01/10 10:18:26;;;;;;;;;11.25;8.00;;;;;7.02;79.53;101751.47;4977583;28;46090;-45
2023/01/10 10:21:20;;;;;;;;;9.00;7.50;;;;;7.01;79.66;101745.31;4972702;28;45464;-44
2023/01/10 10:23:48;;;;;;;;;21.00;8.00;;;;;7.05;78.79;101743.34;5020380;28;45469;-44
2023/01/10 10:26:13;;;;;;;;;17.00;11.00;;;;;7.05;80.11;101733.59;4992628;28;45976;-45
2023/01/10 10:29:15;;;;;;;;;8.50;8.00;;;;;7.07;79.13;101736.13;4976174;28;45446;-43
2023/01/10 10:31:53;;;;;;;;;12.25;9.00;;;;;7.08;80.65;101724.59;4973455;28;45493;-56
2023/01/10 10:34:36;;;;;;;;;11.75;7.25;;;;;7.08;79.44;101716.66;4987624;28;45632;-44
2023/01/10 10:37:20;;;;;;;;;11.75;5.00;;;;;7.09;79.68;101706.00;5042729;27;45340;-45
2023/01/10 10:39:56;;;;;;;;;7.50;7.50;;;;;7.16;80.13;101698.47;5021117;28;46371;-49
2023/01/10 10:42:28;;;;;;;;;11.75;7.50;;;;;7.15;80.55;101694.16;5044518;28;45193;-45
2023/01/10 10:45:19;;;;;;;;;11.00;5.50;;;;;7.18;80.37;101689.50;4995274;27;45462;-56
2023/01/10 10:47:54;;;;;;;;;12.00;6.00;;;;;7.25;80.11;101680.22;5076022;27;45548;-49
2023/01/10 10:50:32;;;;;;;;;12.50;8.00;;;;;7.30;80.34;101668.47;5075544;27;46767;-47
2023/01/10 10:53:00;;;;;;;;;9.25;5.25;;;;;7.31;79.02;101664.88;5075588;27;45491;-45
2023/01/10 10:55:33;;;;;;;;;13.25;5.50;;;;;7.28;79.19;101659.78;5025334;27;45476;-44
2023/01/10 10:57:59;;;;;;;;;13.00;7.00;;;;;7.30;80.76;101663.19;5005483;28;45467;-45
2023/01/10 11:00:25;;;;;;;;;4.00;4.00;;;;;7.28;79.24;101670.38;5038244;28;46520;-47
2023/01/10 11:03:14;;;;;;;;;11.00;5.50;;;;;7.28;80.67;101659.78;4995728;27;45462;-46
2023/01/10 11:05:43;;;;;;;;;13.25;5.25;;;;;7.27;80.79;101652.78;5040913;28;45472;-43
2023/01/10 11:08:12;;;;;;;;;12.25;8.25;;;;;7.22;80.33;101642.53;5075829;27;45370;-53
2023/01/10 11:10:39;;;;;;;;;12.50;8.25;;;;;7.32;80.97;101650.69;5075249;27;47050;-44
2023/01/10 11:13:19;;;;;;;;;5.00;2.50;;;;;7.32;80.84;101650.69;4977188;27;45463;-56
2023/01/10 11:15:47;;;;;;;;;15.50;9.00;;;;;7.31;79.74;101643.69;4989732;28;45443;-46
2023/01/10 11:18:14;;;;;;;;;11.25;8.50;;;;;7.22;79.66;101619.53;5075551;27;45238;-46
2023/01/10 11:21:02;;;;;;;;;18.00;12.00;;;;;7.32;80.21;101624.22;5072290;27;46104;-48
2023/01/10 11:23:33;;;;;;;;;11.50;8.75;;;;;7.33;81.07;101610.03;5074973;27;45378;-60
2023/01/10 11:25:59;;;;;;;;;16.50;9.25;;;;;7.32;80.35;101605.69;5074965;27;46016;-53
2023/01/10 11:28:29;;;;;;;;;8.25;8.25;;;;;7.32;80.80;101597.75;5011865;27;45338;-55
2023/01/10 11:30:55;;;;;;;;;9.25;6.50;;;;;7.32;81.86;101600.38;5023773;27;45505;-54
2023/01/10 11:33:26;;;;;;;;;6.50;4.75;;;;;7.30;81.89;101583.78;4975583;28;45379;-54
2023/01/10 11:36:11;;;;;;;;;8.50;4.50;;;;;7.33;81.50;101597.66;4975117;28;45364;-47
2023/01/10 11:38:37;;;;;;;;;9.25;9.25;;;;;7.31;81.67;101583.66;4974827;28;45616;-55
2023/01/10 11:41:05;;;;;;;;;7.50;4.75;;;;;7.35;81.95;101581.66;5072817;28;45424;-50
2023/01/10 11:43:38;;;;;;;;;5.25;5.25;;;;;7.37;83.10;101566.50;5062561;27;45303;-57
2023/01/10 11:46:21;;;;;;;;;15.75;6.50;;;;;7.41;82.00;101562.69;5022701;27;45491;-52
2023/01/10 11:49:18;;;;;;;;;12.50;8.00;;;;;7.48;80.38;101561.31;5075128;27;45471;-52